createdAt,value
2023-04-26T00:00:10.060Z,1.60
2023-04-26T00:00:34.107Z,1.50
2023-04-26T00:01:04.209Z,1.70
2023-04-26T00:01:27.917Z,1.48
2023-04-26T00:01:51.334Z,1.70
2023-04-26T00:02:14.109Z,1.55
2023-04-26T00:02:37.088Z,1.40
2023-04-26T00:03:03.409Z,1.55
2023-04-26T00:03:27.142Z,1.70
2023-04-26T00:03:50.536Z,1.70
2023-04-26T00:04:14.507Z,1.58
2023-04-26T00:04:37.927Z,1.60
2023-04-26T00:05:02.668Z,1.70
2023-04-26T00:05:26.168Z,1.73
2023-04-26T00:05:49.648Z,1.60
2023-04-26T00:06:14.909Z,1.67
2023-04-26T00:06:37.634Z,1.60
2023-04-26T00:07:00.992Z,1.48
2023-04-26T00:07:25.018Z,1.50
2023-04-26T00:07:47.731Z,1.70
2023-04-26T00:08:11.944Z,1.90
2023-04-26T00:08:34.837Z,1.73
2023-04-26T00:08:57.720Z,1.80
2023-04-26T00:09:20.506Z,1.52
2023-04-26T00:09:45.144Z,1.60
2023-04-26T00:10:09.025Z,1.42
2023-04-26T00:10:31.989Z,1.52
2023-04-26T00:10:54.921Z,1.77
2023-04-26T00:11:20.885Z,1.80
2023-04-26T00:11:43.656Z,1.42
2023-04-26T00:12:07.276Z,1.50
2023-04-26T00:12:30.257Z,1.70
2023-04-26T00:12:53.310Z,1.48
2023-04-26T00:13:16.343Z,1.80
2023-04-26T00:13:39.153Z,1.60
2023-04-26T00:14:02.005Z,1.67
2023-04-26T00:14:25.303Z,1.67
2023-04-26T00:14:48.138Z,1.50
2023-04-26T00:15:11.621Z,1.63
2023-04-26T00:15:34.526Z,1.70
2023-04-26T00:15:57.292Z,1.60
2023-04-26T00:16:21.357Z,1.45
2023-04-26T00:16:44.432Z,1.50
2023-04-26T00:17:07.348Z,1.50
2023-04-26T00:17:30.264Z,1.40
2023-04-26T00:17:53.345Z,1.50
2023-04-26T00:18:17.171Z,1.60
2023-04-26T00:18:39.933Z,1.55
2023-04-26T00:19:05.889Z,1.60
2023-04-26T00:19:28.921Z,1.50
2023-04-26T00:19:52.247Z,1.58
2023-04-26T00:20:15.769Z,1.48
2023-04-26T00:20:39.561Z,1.60
2023-04-26T00:21:02.905Z,1.50
2023-04-26T00:21:25.674Z,1.40
2023-04-26T00:21:48.447Z,1.30
2023-04-26T00:22:11.345Z,1.40
2023-04-26T00:22:34.262Z,1.42
2023-04-26T00:22:57.618Z,1.50
2023-04-26T00:23:21.836Z,1.52
2023-04-26T00:23:44.616Z,1.48
2023-04-26T00:24:08.065Z,1.40
2023-04-26T00:24:30.903Z,1.30
2023-04-26T00:24:53.643Z,1.20
2023-04-26T00:25:16.485Z,1.42
2023-04-26T00:25:39.252Z,1.40
2023-04-26T00:26:02.117Z,1.40
2023-04-26T00:26:26.301Z,1.45
2023-04-26T00:26:49.100Z,1.30
2023-04-26T00:27:14.393Z,1.20
2023-04-26T00:27:37.339Z,1.30
2023-04-26T00:28:00.488Z,1.25
2023-04-26T00:28:23.246Z,1.30
2023-04-26T00:28:46.611Z,1.30
2023-04-26T00:29:09.703Z,1.42
2023-04-26T00:29:32.580Z,1.27
2023-04-26T00:29:55.483Z,1.42
2023-04-26T00:30:18.352Z,1.35
2023-04-26T00:30:47.571Z,1.40
2023-04-26T00:31:15.493Z,1.23
2023-04-26T00:31:38.266Z,1.30
2023-04-26T00:32:01.229Z,1.40
2023-04-26T00:32:24.263Z,1.50
2023-04-26T00:32:48.207Z,1.35
2023-04-26T00:33:11.310Z,1.40
2023-04-26T00:33:34.197Z,1.38
2023-04-26T00:33:59.306Z,1.40
2023-04-26T00:34:22.175Z,1.50
2023-04-26T00:34:48.183Z,1.30
2023-04-26T00:35:11.245Z,1.35
2023-04-26T00:35:34.016Z,1.33
2023-04-26T00:35:56.816Z,1.42
2023-04-26T00:36:19.675Z,1.30
2023-04-26T00:36:42.569Z,1.30
2023-04-26T00:37:05.455Z,1.30
2023-04-26T00:37:28.308Z,1.38
2023-04-26T00:37:51.589Z,1.60
2023-04-26T00:38:14.362Z,1.60
2023-04-26T00:38:40.949Z,1.70
2023-04-26T00:39:04.239Z,1.40
2023-04-26T00:39:27.549Z,1.48
2023-04-26T00:39:50.474Z,1.40
2023-04-26T00:40:16.281Z,1.58
2023-04-26T00:40:39.049Z,1.50
2023-04-26T00:41:01.851Z,1.45
2023-04-26T00:41:24.642Z,1.30
2023-04-26T00:41:48.032Z,1.20
2023-04-26T00:42:10.976Z,1.30
2023-04-26T00:42:33.758Z,1.45
2023-04-26T00:42:58.020Z,1.30
2023-04-26T00:43:21.053Z,1.20
2023-04-26T00:43:44.001Z,1.25
2023-04-26T00:44:06.906Z,1.20
2023-04-26T00:44:29.730Z,1.20
2023-04-26T00:44:55.577Z,1.50
2023-04-26T00:45:18.477Z,1.50
2023-04-26T00:45:43.831Z,1.33
2023-04-26T00:46:06.771Z,1.42
2023-04-26T00:46:31.233Z,1.30
2023-04-26T00:46:54.431Z,1.20
2023-04-26T00:47:19.519Z,1.30
2023-04-26T00:47:42.521Z,1.30
2023-04-26T00:48:05.759Z,1.23
2023-04-26T00:48:28.843Z,1.50
2023-04-26T00:48:51.860Z,1.38
2023-04-26T00:49:17.213Z,1.20
2023-04-26T00:49:40.191Z,1.40
2023-04-26T00:50:03.768Z,1.30
2023-04-26T00:50:26.643Z,1.38
2023-04-26T00:50:49.419Z,1.30
2023-04-26T00:51:12.225Z,1.30
2023-04-26T00:51:34.961Z,1.33
2023-04-26T00:51:57.723Z,1.50
2023-04-26T00:52:23.435Z,1.70
2023-04-26T00:52:46.248Z,1.42
2023-04-26T00:53:09.156Z,1.48
2023-04-26T00:53:34.266Z,1.35
2023-04-26T00:53:58.877Z,1.30
2023-04-26T00:54:21.923Z,1.38
2023-04-26T00:54:46.876Z,1.50
2023-04-26T00:55:10.276Z,1.35
2023-04-26T00:55:33.082Z,1.50
2023-04-26T00:55:55.800Z,1.38
2023-04-26T00:56:20.990Z,1.40
2023-04-26T00:56:43.778Z,1.40
2023-04-26T00:57:09.948Z,1.50
2023-04-26T00:57:35.958Z,1.40
2023-04-26T00:57:59.373Z,1.35
2023-04-26T00:58:22.199Z,1.40
2023-04-26T00:58:45.006Z,1.42
2023-04-26T00:59:10.000Z,1.40
2023-04-26T00:59:34.792Z,1.30
2023-04-26T00:59:59.996Z,1.52
2023-04-26T01:00:23.000Z,1.40
2023-04-26T01:00:45.963Z,1.35
2023-04-26T01:01:10.977Z,1.30
2023-04-26T01:01:36.526Z,1.45
2023-04-26T01:02:00.362Z,1.70
2023-04-26T01:02:25.805Z,1.70
2023-04-26T01:02:49.066Z,1.60
2023-04-26T01:03:12.142Z,1.60
2023-04-26T01:03:37.305Z,1.45
2023-04-26T01:04:00.357Z,1.70
2023-04-26T01:04:26.618Z,1.60
2023-04-26T01:04:51.986Z,1.65
2023-04-26T01:05:14.775Z,1.60
2023-04-26T01:05:37.803Z,1.45
2023-04-26T01:06:03.011Z,1.50
2023-04-26T01:06:25.841Z,1.63
2023-04-26T01:06:51.109Z,1.60
2023-04-26T01:07:13.888Z,1.90
2023-04-26T01:07:37.050Z,1.60
2023-04-26T01:08:02.254Z,1.35
2023-04-26T01:08:25.044Z,1.40
2023-04-26T01:08:47.861Z,1.35
2023-04-26T01:09:15.895Z,1.70
2023-04-26T01:09:39.122Z,1.50
2023-04-26T01:10:05.078Z,1.60
2023-04-26T01:10:28.016Z,1.50
2023-04-26T01:10:51.051Z,1.60
2023-04-26T01:11:13.764Z,1.45
2023-04-26T01:11:39.695Z,1.50
2023-04-26T01:12:02.432Z,1.60
2023-04-26T01:12:25.327Z,1.58
2023-04-26T01:12:48.251Z,1.40
2023-04-26T01:13:11.570Z,1.58
2023-04-26T01:13:36.654Z,1.55
2023-04-26T01:13:59.409Z,1.55
2023-04-26T01:14:22.253Z,1.60
2023-04-26T01:14:44.926Z,1.50
2023-04-26T01:15:09.104Z,1.60
2023-04-26T01:15:33.638Z,1.55
2023-04-26T01:15:56.432Z,1.40
2023-04-26T01:16:19.426Z,1.50
2023-04-26T01:16:42.236Z,1.55
2023-04-26T01:17:06.366Z,1.58
2023-04-26T01:17:29.925Z,1.50
2023-04-26T01:17:52.851Z,1.60
2023-04-26T01:18:15.595Z,1.60
2023-04-26T01:18:39.541Z,1.45
2023-04-26T01:19:09.622Z,1.50
2023-04-26T01:19:33.036Z,1.50
2023-04-26T01:19:58.300Z,1.63
2023-04-26T01:20:21.638Z,1.60
2023-04-26T01:20:46.887Z,1.55
2023-04-26T01:21:11.562Z,1.73
2023-04-26T01:21:34.602Z,1.50
2023-04-26T01:21:57.379Z,1.80
2023-04-26T01:22:20.172Z,1.67
2023-04-26T01:22:44.470Z,1.50
2023-04-26T01:23:07.485Z,1.60
2023-04-26T01:23:30.733Z,1.80
2023-04-26T01:23:53.572Z,1.77
2023-04-26T01:24:18.644Z,1.70
2023-04-26T01:24:41.663Z,1.80
2023-04-26T01:25:07.716Z,1.90
2023-04-26T01:25:30.933Z,1.70
2023-04-26T01:25:56.398Z,1.77
2023-04-26T01:26:19.287Z,1.70
2023-04-26T01:26:48.239Z,1.60
2023-04-26T01:27:10.987Z,1.60
2023-04-26T01:27:33.725Z,1.73
2023-04-26T01:27:56.556Z,1.50
2023-04-26T01:28:21.758Z,1.48
2023-04-26T01:28:46.927Z,1.70
2023-04-26T01:29:14.274Z,2.00
2023-04-26T01:29:39.503Z,1.83
2023-04-26T01:30:02.361Z,2.00
2023-04-26T01:30:28.326Z,1.50
2023-04-26T01:30:51.409Z,1.75
2023-04-26T01:31:14.159Z,1.50
2023-04-26T01:31:41.922Z,1.45
2023-04-26T01:32:04.768Z,1.80
2023-04-26T01:32:27.738Z,1.67
2023-04-26T01:32:50.696Z,1.60
2023-04-26T01:33:15.557Z,1.63
2023-04-26T01:33:38.311Z,1.52
2023-04-26T01:34:01.357Z,1.73
2023-04-26T01:34:24.130Z,1.80
2023-04-26T01:34:46.971Z,1.55
2023-04-26T01:35:09.942Z,1.52
2023-04-26T01:35:33.680Z,1.50
2023-04-26T01:35:56.749Z,1.50
2023-04-26T01:36:19.651Z,1.50
2023-04-26T01:36:42.832Z,1.55
2023-04-26T01:37:07.881Z,1.80
2023-04-26T01:37:31.065Z,1.80
2023-04-26T01:37:57.614Z,1.85
2023-04-26T01:38:21.000Z,1.85
2023-04-26T01:38:43.781Z,1.42
2023-04-26T01:39:09.035Z,1.80
2023-04-26T01:39:31.818Z,1.80
2023-04-26T01:39:54.640Z,1.92
2023-04-26T01:40:17.486Z,1.98
2023-04-26T01:40:40.829Z,1.63
2023-04-26T01:41:03.613Z,1.50
2023-04-26T01:41:26.312Z,1.70
2023-04-26T01:41:49.031Z,1.58
2023-04-26T01:42:11.839Z,1.67
2023-04-26T01:42:34.557Z,1.80
2023-04-26T01:42:57.783Z,1.63
2023-04-26T01:43:23.053Z,1.75
2023-04-26T01:43:46.142Z,1.45
2023-04-26T01:44:08.886Z,1.65
2023-04-26T01:44:31.855Z,1.60
2023-04-26T01:44:54.558Z,1.75
2023-04-26T01:45:17.607Z,1.90
2023-04-26T01:45:41.616Z,1.55
2023-04-26T01:46:04.442Z,1.40
2023-04-26T01:46:27.444Z,1.50
2023-04-26T01:46:50.633Z,1.73
2023-04-26T01:47:13.546Z,1.73
2023-04-26T01:47:36.551Z,1.63
2023-04-26T01:47:59.464Z,1.75
2023-04-26T01:48:22.394Z,1.60
2023-04-26T01:48:47.397Z,1.55
2023-04-26T01:49:10.216Z,1.60
2023-04-26T01:49:35.517Z,1.50
2023-04-26T01:49:58.283Z,1.42
2023-04-26T01:50:21.281Z,1.50
2023-04-26T01:50:43.995Z,1.52
2023-04-26T01:51:06.933Z,1.63
2023-04-26T01:51:29.941Z,1.50
2023-04-26T01:51:53.480Z,1.77
2023-04-26T01:52:16.872Z,1.70
2023-04-26T01:52:39.622Z,1.60
2023-04-26T01:53:06.923Z,1.50
2023-04-26T01:53:29.690Z,1.58
2023-04-26T01:53:52.498Z,1.25
2023-04-26T01:54:15.216Z,1.50
2023-04-26T01:54:37.997Z,1.50
2023-04-26T01:55:03.204Z,1.40
2023-04-26T01:55:26.038Z,1.50
2023-04-26T01:55:48.752Z,1.40
2023-04-26T01:56:11.520Z,1.33
2023-04-26T01:56:34.329Z,1.60
2023-04-26T01:56:57.224Z,1.40
2023-04-26T01:57:19.893Z,1.40
2023-04-26T01:57:45.769Z,1.50
2023-04-26T01:58:08.626Z,1.48
2023-04-26T01:58:33.828Z,1.50
2023-04-26T01:58:57.812Z,1.52
2023-04-26T01:59:20.751Z,1.42
2023-04-26T01:59:43.549Z,1.40
2023-04-26T02:00:08.827Z,1.60
2023-04-26T02:00:32.484Z,1.63
2023-04-26T02:00:55.363Z,1.65
2023-04-26T02:01:18.208Z,1.40
2023-04-26T02:01:42.590Z,1.45
2023-04-26T02:02:05.700Z,1.42
2023-04-26T02:02:28.857Z,1.50
2023-04-26T02:02:54.533Z,1.35
2023-04-26T02:03:18.083Z,1.50
2023-04-26T02:03:41.033Z,1.27
2023-04-26T02:04:04.644Z,1.30
2023-04-26T02:04:27.702Z,1.52
2023-04-26T02:04:51.220Z,1.60
2023-04-26T02:05:14.034Z,1.35
2023-04-26T02:05:39.717Z,1.13
2023-04-26T02:06:02.670Z,1.23
2023-04-26T02:06:25.563Z,1.30
2023-04-26T02:06:48.332Z,1.50
2023-04-26T02:07:11.220Z,1.67
2023-04-26T02:07:33.958Z,1.50
2023-04-26T02:07:56.744Z,1.52
2023-04-26T02:08:20.902Z,1.33
2023-04-26T02:08:43.787Z,1.30
2023-04-26T02:09:06.583Z,1.42
2023-04-26T02:09:30.382Z,1.60
2023-04-26T02:09:55.367Z,1.88
2023-04-26T02:10:18.309Z,1.80
2023-04-26T02:10:41.448Z,1.65
2023-04-26T02:11:04.388Z,1.48
2023-04-26T02:11:27.223Z,1.40
2023-04-26T02:11:49.901Z,1.40
2023-04-26T02:12:12.803Z,1.60
2023-04-26T02:12:37.676Z,1.50
2023-04-26T02:13:00.418Z,1.42
2023-04-26T02:13:23.296Z,1.42
2023-04-26T02:13:48.577Z,1.30
2023-04-26T02:14:11.696Z,1.50
2023-04-26T02:14:34.406Z,1.67
2023-04-26T02:14:57.411Z,1.50
2023-04-26T02:15:22.750Z,1.50
2023-04-26T02:15:47.416Z,1.80
2023-04-26T02:16:10.246Z,1.67
2023-04-26T02:16:35.374Z,1.70
2023-04-26T02:16:58.477Z,1.83
2023-04-26T02:17:21.529Z,1.73
2023-04-26T02:17:44.530Z,1.83
2023-04-26T02:18:07.400Z,1.90
2023-04-26T02:18:31.287Z,2.03
2023-04-26T02:18:56.537Z,1.85
2023-04-26T02:19:19.347Z,1.98
2023-04-26T02:19:42.082Z,1.77
2023-04-26T02:20:05.424Z,1.80
2023-04-26T02:20:28.315Z,1.50
2023-04-26T02:20:53.286Z,1.65
2023-04-26T02:21:17.386Z,2.10
2023-04-26T02:21:54.235Z,1.90
2023-04-26T02:22:17.788Z,1.92
2023-04-26T02:22:40.563Z,2.10
2023-04-26T02:23:03.517Z,2.00
2023-04-26T02:23:27.841Z,2.05
2023-04-26T02:23:50.561Z,1.60
2023-04-26T02:24:13.305Z,1.42
2023-04-26T02:24:36.141Z,1.67
2023-04-26T02:24:58.961Z,1.90
2023-04-26T02:25:21.843Z,1.80
2023-04-26T02:25:46.222Z,1.70
2023-04-26T02:26:09.019Z,1.70
2023-04-26T02:26:32.862Z,1.70
2023-04-26T02:26:56.708Z,1.80
2023-04-26T02:27:19.690Z,1.63
2023-04-26T02:27:44.819Z,1.63
2023-04-26T02:28:07.562Z,1.67
2023-04-26T02:28:30.327Z,1.50
2023-04-26T02:28:53.292Z,1.70
2023-04-26T02:29:19.279Z,1.65
2023-04-26T02:29:45.066Z,1.75
2023-04-26T02:30:09.805Z,1.77
2023-04-26T02:30:32.803Z,1.90
2023-04-26T02:30:56.943Z,1.95
2023-04-26T02:31:23.106Z,1.88
2023-04-26T02:31:48.711Z,1.80
2023-04-26T02:32:11.655Z,1.70
2023-04-26T02:32:34.432Z,1.70
2023-04-26T02:32:57.356Z,1.77
2023-04-26T02:33:20.184Z,1.73
2023-04-26T02:33:43.011Z,1.52
2023-04-26T02:34:06.578Z,1.80
2023-04-26T02:34:33.123Z,1.70
2023-04-26T02:34:56.492Z,1.73
2023-04-26T02:35:19.525Z,1.80
2023-04-26T02:35:42.249Z,1.50
2023-04-26T02:36:08.450Z,1.80
2023-04-26T02:36:31.247Z,1.50
2023-04-26T02:36:54.066Z,1.60
2023-04-26T02:37:16.830Z,1.50
2023-04-26T02:37:39.642Z,1.40
2023-04-26T02:38:02.448Z,1.77
2023-04-26T02:38:26.729Z,1.77
2023-04-26T02:38:51.171Z,1.52
2023-04-26T02:39:14.306Z,1.42
2023-04-26T02:39:37.159Z,1.52
2023-04-26T02:39:59.949Z,1.40
2023-04-26T02:40:23.270Z,1.70
2023-04-26T02:40:46.284Z,1.60
2023-04-26T02:41:09.005Z,1.70
2023-04-26T02:41:32.976Z,1.77
2023-04-26T02:41:56.020Z,1.80
2023-04-26T02:42:18.943Z,1.77
2023-04-26T02:42:41.844Z,1.50
2023-04-26T02:43:04.626Z,1.58
2023-04-26T02:43:27.487Z,1.60
2023-04-26T02:43:50.350Z,1.30
2023-04-26T02:44:15.331Z,1.48
2023-04-26T02:44:39.802Z,1.70
2023-04-26T02:45:03.207Z,1.73
2023-04-26T02:45:28.137Z,1.85
2023-04-26T02:45:51.019Z,1.67
2023-04-26T02:46:16.787Z,1.85
2023-04-26T02:46:42.758Z,1.60
2023-04-26T02:47:05.738Z,2.00
2023-04-26T02:47:28.564Z,2.00
2023-04-26T02:47:53.703Z,1.80
2023-04-26T02:48:16.639Z,1.80
2023-04-26T02:48:41.691Z,1.88
2023-04-26T02:49:04.470Z,1.70
2023-04-26T02:49:29.502Z,1.77
2023-04-26T02:49:52.819Z,2.00
2023-04-26T02:50:15.632Z,1.80
2023-04-26T02:50:41.480Z,1.70
2023-04-26T02:51:04.693Z,1.90
2023-04-26T02:51:27.518Z,1.75
2023-04-26T02:51:50.337Z,1.70
2023-04-26T02:52:13.176Z,1.80
2023-04-26T02:52:36.046Z,2.00
2023-04-26T02:53:01.190Z,2.05
2023-04-26T02:53:24.141Z,2.20
2023-04-26T02:53:46.826Z,2.00
2023-04-26T02:54:11.118Z,2.17
2023-04-26T02:54:36.374Z,1.98
2023-04-26T02:54:59.330Z,2.25
2023-04-26T02:55:22.260Z,2.17
2023-04-26T02:55:47.967Z,2.15
2023-04-26T02:56:11.523Z,2.13
2023-04-26T02:56:34.248Z,2.20
2023-04-26T02:56:58.310Z,2.08
2023-04-26T02:57:22.174Z,1.90
2023-04-26T02:57:44.959Z,1.98
2023-04-26T02:58:08.210Z,1.75
2023-04-26T02:58:31.221Z,1.73
2023-04-26T02:58:54.174Z,1.80
2023-04-26T02:59:19.513Z,1.73
2023-04-26T02:59:44.272Z,1.70
2023-04-26T03:00:09.163Z,1.67
2023-04-26T03:00:34.233Z,1.90
2023-04-26T03:01:01.020Z,1.90
2023-04-26T03:01:24.677Z,2.10
2023-04-26T03:01:47.498Z,2.00
2023-04-26T03:02:10.421Z,1.95
2023-04-26T03:02:35.795Z,1.88
2023-04-26T03:02:58.959Z,1.80
2023-04-26T03:03:25.108Z,1.90
2023-04-26T03:03:48.511Z,2.15
2023-04-26T03:04:17.720Z,2.00
2023-04-26T03:04:42.117Z,1.90
2023-04-26T03:05:07.703Z,1.90
2023-04-26T03:05:32.833Z,1.90
2023-04-26T03:05:58.185Z,2.13
2023-04-26T03:06:23.515Z,1.85
2023-04-26T03:06:46.578Z,1.90
2023-04-26T03:07:09.295Z,1.80
2023-04-26T03:07:34.250Z,1.65
2023-04-26T03:07:56.961Z,1.85
2023-04-26T03:08:22.905Z,2.05
2023-04-26T03:08:45.857Z,1.95
2023-04-26T03:09:12.231Z,1.95
2023-04-26T03:09:38.154Z,1.92
2023-04-26T03:10:01.140Z,1.85
2023-04-26T03:10:23.912Z,2.00
2023-04-26T03:10:46.699Z,2.10
2023-04-26T03:11:09.400Z,1.83
2023-04-26T03:11:32.320Z,1.70
2023-04-26T03:11:55.074Z,1.92
2023-04-26T03:12:17.807Z,1.90
2023-04-26T03:12:41.159Z,1.70
2023-04-26T03:13:04.947Z,1.50
2023-04-26T03:13:27.745Z,1.70
2023-04-26T03:13:50.506Z,1.70
2023-04-26T03:14:13.394Z,1.50
2023-04-26T03:14:36.547Z,1.58
2023-04-26T03:14:59.521Z,1.70
2023-04-26T03:15:22.412Z,1.80
2023-04-26T03:15:46.432Z,1.85
2023-04-26T03:16:09.507Z,1.60
2023-04-26T03:16:34.492Z,1.70
2023-04-26T03:16:57.388Z,1.58
2023-04-26T03:17:20.341Z,1.50
2023-04-26T03:17:43.442Z,1.42
2023-04-26T03:18:06.478Z,1.58
2023-04-26T03:18:29.301Z,1.77
2023-04-26T03:18:52.311Z,1.77
2023-04-26T03:19:15.749Z,1.60
2023-04-26T03:19:39.083Z,1.38
2023-04-26T03:20:02.865Z,1.63
2023-04-26T03:20:25.932Z,1.60
2023-04-26T03:20:48.714Z,1.67
2023-04-26T03:21:12.225Z,1.73
2023-04-26T03:21:37.844Z,1.60
2023-04-26T03:22:00.640Z,1.73
2023-04-26T03:22:23.509Z,1.60
2023-04-26T03:22:46.640Z,1.67
2023-04-26T03:23:09.384Z,1.40
2023-04-26T03:23:32.071Z,1.83
2023-04-26T03:23:54.780Z,1.98
2023-04-26T03:24:19.045Z,1.90
2023-04-26T03:24:42.731Z,1.70
2023-04-26T03:25:06.666Z,1.73
2023-04-26T03:25:29.703Z,1.90
2023-04-26T03:25:52.688Z,2.10
2023-04-26T03:26:15.544Z,1.75
2023-04-26T03:26:38.376Z,1.58
2023-04-26T03:27:01.351Z,1.77
2023-04-26T03:27:24.104Z,1.50
2023-04-26T03:27:47.046Z,1.60
2023-04-26T03:28:09.811Z,1.65
2023-04-26T03:28:32.809Z,1.90
2023-04-26T03:28:56.252Z,1.70
2023-04-26T03:29:18.930Z,1.65
2023-04-26T03:29:43.917Z,1.58
2023-04-26T03:30:10.955Z,1.50
2023-04-26T03:30:33.742Z,1.60
2023-04-26T03:30:56.574Z,1.50
2023-04-26T03:31:21.901Z,1.60
2023-04-26T03:31:44.927Z,1.70
2023-04-26T03:32:07.924Z,1.63
2023-04-26T03:32:33.938Z,1.50
2023-04-26T03:32:57.625Z,1.50
2023-04-26T03:33:20.558Z,1.50
2023-04-26T03:33:43.386Z,1.50
2023-04-26T03:34:09.241Z,1.60
2023-04-26T03:34:31.945Z,1.70
2023-04-26T03:34:54.811Z,1.50
2023-04-26T03:35:17.626Z,1.70
2023-04-26T03:35:40.592Z,1.60
2023-04-26T03:36:03.540Z,1.60
2023-04-26T03:36:28.720Z,1.35
2023-04-26T03:36:51.712Z,1.40
2023-04-26T03:37:14.502Z,1.50
2023-04-26T03:37:39.895Z,1.50
2023-04-26T03:38:02.728Z,1.40
2023-04-26T03:38:26.227Z,1.35
2023-04-26T03:38:52.230Z,1.60
2023-04-26T03:39:15.258Z,1.60
2023-04-26T03:39:39.603Z,1.42
2023-04-26T03:40:05.105Z,1.40
2023-04-26T03:40:27.971Z,1.40
2023-04-26T03:40:50.725Z,1.60
2023-04-26T03:41:13.564Z,1.40
2023-04-26T03:41:39.669Z,1.50
2023-04-26T03:42:04.151Z,1.45
2023-04-26T03:42:27.068Z,1.60
2023-04-26T03:42:52.065Z,1.70
2023-04-26T03:43:16.986Z,1.60
2023-04-26T03:43:39.729Z,1.70
2023-04-26T03:44:02.832Z,1.75
2023-04-26T03:44:25.667Z,1.83
2023-04-26T03:44:49.149Z,2.00
2023-04-26T03:45:12.204Z,1.95
2023-04-26T03:45:35.115Z,2.03
2023-04-26T03:45:57.985Z,1.90
2023-04-26T03:46:20.870Z,1.90
2023-04-26T03:46:43.973Z,1.77
2023-04-26T03:47:06.863Z,1.80
2023-04-26T03:47:32.144Z,2.10
2023-04-26T03:47:55.159Z,1.95
2023-04-26T03:48:20.301Z,2.00
2023-04-26T03:48:43.104Z,2.00
2023-04-26T03:49:05.918Z,2.10
2023-04-26T03:49:28.655Z,1.85
2023-04-26T03:49:51.511Z,2.00
2023-04-26T03:50:14.401Z,2.40
2023-04-26T03:50:37.376Z,2.20
2023-04-26T03:51:00.166Z,2.50
2023-04-26T03:51:23.040Z,2.13
2023-04-26T03:51:48.184Z,1.92
2023-04-26T03:52:11.388Z,2.35
2023-04-26T03:52:34.099Z,2.30
2023-04-26T03:52:59.357Z,2.40
2023-04-26T03:53:22.251Z,2.15
2023-04-26T03:53:47.058Z,2.20
2023-04-26T03:54:09.764Z,2.10
2023-04-26T03:54:35.112Z,2.00
2023-04-26T03:54:59.525Z,2.05
2023-04-26T03:55:22.407Z,2.10
2023-04-26T03:55:45.294Z,2.10
2023-04-26T03:56:08.842Z,2.03
2023-04-26T03:56:31.683Z,2.05
2023-04-26T03:56:57.122Z,2.20
2023-04-26T03:57:19.865Z,2.10
2023-04-26T03:57:42.650Z,1.98
2023-04-26T03:58:08.338Z,1.85
2023-04-26T03:58:31.476Z,2.10
2023-04-26T03:58:56.676Z,2.10
2023-04-26T03:59:19.523Z,2.42
2023-04-26T03:59:42.372Z,2.78
2023-04-26T04:00:13.950Z,2.80
2023-04-26T04:00:38.014Z,2.80
2023-04-26T04:01:00.986Z,2.58
2023-04-26T04:01:25.931Z,2.38
2023-04-26T04:01:48.665Z,2.42
2023-04-26T04:02:11.512Z,2.90
2023-04-26T04:02:34.625Z,3.17
2023-04-26T04:02:57.717Z,3.13
2023-04-26T04:03:23.509Z,2.83
2023-04-26T04:03:46.906Z,2.78
2023-04-26T04:04:12.362Z,2.10
2023-04-26T04:04:35.942Z,2.30
2023-04-26T04:04:59.398Z,2.78
2023-04-26T04:05:22.491Z,2.50
2023-04-26T04:05:45.284Z,2.30
2023-04-26T04:06:08.166Z,2.25
2023-04-26T04:06:31.239Z,2.28
2023-04-26T04:06:54.183Z,2.28
2023-04-26T04:07:19.480Z,2.70
2023-04-26T04:07:44.662Z,2.97
2023-04-26T04:08:09.847Z,2.67
2023-04-26T04:08:32.727Z,2.70
2023-04-26T04:08:58.485Z,2.53
2023-04-26T04:09:23.879Z,2.60
2023-04-26T04:09:46.712Z,2.47
2023-04-26T04:10:11.745Z,2.22
2023-04-26T04:10:34.502Z,2.60
2023-04-26T04:10:57.334Z,2.60
2023-04-26T04:11:20.514Z,2.80
2023-04-26T04:11:47.009Z,2.70
2023-04-26T04:12:10.430Z,2.80
2023-04-26T04:12:35.768Z,2.70
2023-04-26T04:13:01.798Z,2.80
2023-04-26T04:13:26.929Z,3.10
2023-04-26T04:13:49.679Z,3.40
2023-04-26T04:14:14.848Z,3.03
2023-04-26T04:14:37.682Z,3.05
2023-04-26T04:15:00.780Z,3.28
2023-04-26T04:15:25.973Z,3.10
2023-04-26T04:15:52.048Z,2.97
2023-04-26T04:16:15.001Z,3.00
2023-04-26T04:16:37.959Z,2.85
2023-04-26T04:17:01.313Z,3.28
2023-04-26T04:17:24.243Z,3.17
2023-04-26T04:17:47.450Z,2.70
2023-04-26T04:18:10.244Z,2.60
2023-04-26T04:18:33.216Z,3.00
2023-04-26T04:18:56.005Z,3.30
2023-04-26T04:19:19.161Z,3.00
2023-04-26T04:19:41.924Z,3.25
2023-04-26T04:20:07.510Z,3.22
2023-04-26T04:20:30.428Z,2.90
2023-04-26T04:20:53.340Z,3.13
2023-04-26T04:21:16.650Z,3.10
2023-04-26T04:21:40.650Z,2.97
2023-04-26T04:22:03.449Z,2.70
2023-04-26T04:22:26.394Z,2.70
2023-04-26T04:22:49.136Z,2.55
2023-04-26T04:23:11.853Z,2.67
2023-04-26T04:23:34.786Z,2.70
2023-04-26T04:23:57.574Z,2.70
2023-04-26T04:24:20.486Z,2.78
2023-04-26T04:24:44.383Z,2.90
2023-04-26T04:25:07.939Z,2.45
2023-04-26T04:25:33.012Z,2.35
2023-04-26T04:25:56.008Z,2.67
2023-04-26T04:26:19.443Z,2.63
2023-04-26T04:26:42.754Z,2.83
2023-04-26T04:27:08.606Z,2.60
2023-04-26T04:27:32.348Z,2.90
2023-04-26T04:27:55.188Z,3.00
2023-04-26T04:28:18.021Z,2.65
2023-04-26T04:28:45.679Z,2.50
2023-04-26T04:29:11.541Z,2.35
2023-04-26T04:29:35.243Z,2.53
2023-04-26T04:29:57.980Z,2.45
2023-04-26T04:30:23.202Z,2.20
2023-04-26T04:30:47.044Z,2.13
2023-04-26T04:31:09.991Z,2.60
2023-04-26T04:31:33.032Z,2.20
2023-04-26T04:31:57.941Z,2.30
2023-04-26T04:32:21.179Z,2.55
2023-04-26T04:32:49.189Z,2.35
2023-04-26T04:33:12.526Z,2.25
2023-04-26T04:33:35.431Z,2.30
2023-04-26T04:34:00.549Z,2.30
2023-04-26T04:34:25.591Z,2.28
2023-04-26T04:34:49.577Z,2.42
2023-04-26T04:35:15.010Z,2.25
2023-04-26T04:35:37.789Z,2.30
2023-04-26T04:36:02.982Z,2.28
2023-04-26T04:36:26.488Z,2.25
2023-04-26T04:36:49.364Z,2.63
2023-04-26T04:37:15.381Z,2.10
2023-04-26T04:37:38.424Z,1.90
2023-04-26T04:38:03.774Z,2.15
2023-04-26T04:38:26.509Z,2.20
2023-04-26T04:38:49.293Z,2.05
2023-04-26T04:39:17.282Z,2.10
2023-04-26T04:39:40.024Z,2.20
2023-04-26T04:40:02.756Z,2.10
2023-04-26T04:40:27.748Z,2.15
2023-04-26T04:40:52.672Z,2.30
2023-04-26T04:41:15.463Z,2.30
2023-04-26T04:41:38.195Z,2.63
2023-04-26T04:42:01.448Z,2.42
2023-04-26T04:42:27.106Z,2.60
2023-04-26T04:42:50.250Z,2.40
2023-04-26T04:43:15.377Z,2.58
2023-04-26T04:43:39.206Z,3.10
2023-04-26T04:44:04.173Z,2.80
2023-04-26T04:44:27.430Z,3.05
2023-04-26T04:44:50.757Z,3.13
2023-04-26T04:45:15.076Z,3.13
2023-04-26T04:45:39.062Z,3.22
2023-04-26T04:46:04.058Z,3.05
2023-04-26T04:46:27.096Z,2.75
2023-04-26T04:46:49.908Z,3.33
2023-04-26T04:47:12.738Z,3.13
2023-04-26T04:47:38.055Z,2.90
2023-04-26T04:48:01.008Z,3.28
2023-04-26T04:48:24.008Z,3.38
2023-04-26T04:48:48.895Z,2.95
2023-04-26T04:49:12.555Z,2.70
2023-04-26T04:49:38.397Z,2.60
2023-04-26T04:50:03.932Z,2.72
2023-04-26T04:50:26.733Z,2.78
2023-04-26T04:50:52.989Z,2.60
2023-04-26T04:51:15.840Z,2.55
2023-04-26T04:51:40.766Z,2.58
2023-04-26T04:52:03.524Z,2.33
2023-04-26T04:52:26.408Z,2.58
2023-04-26T04:52:49.143Z,2.60
2023-04-26T04:53:14.796Z,2.55
2023-04-26T04:53:38.295Z,2.35
2023-04-26T04:54:09.764Z,2.30
2023-04-26T04:54:32.557Z,2.60
2023-04-26T04:54:56.208Z,3.00
2023-04-26T04:55:19.002Z,2.88
2023-04-26T04:55:41.928Z,2.72
2023-04-26T04:56:06.526Z,3.03
2023-04-26T04:56:29.291Z,2.83
2023-04-26T04:56:52.017Z,3.20
2023-04-26T04:57:16.691Z,3.25
2023-04-26T04:57:42.701Z,2.85
2023-04-26T04:58:06.921Z,3.40
2023-04-26T04:58:29.642Z,3.38
2023-04-26T04:58:52.672Z,2.70
2023-04-26T04:59:17.020Z,2.50
2023-04-26T04:59:40.400Z,2.60
2023-04-26T05:00:10.215Z,2.80
2023-04-26T05:00:33.132Z,2.40
2023-04-26T05:00:56.199Z,2.67
2023-04-26T05:01:18.968Z,2.50
2023-04-26T05:01:41.944Z,2.35
2023-04-26T05:02:05.346Z,2.60
2023-04-26T05:02:28.417Z,2.60
2023-04-26T05:02:51.529Z,2.55
2023-04-26T05:03:15.506Z,2.70
2023-04-26T05:03:38.624Z,2.83
2023-04-26T05:04:01.817Z,2.70
2023-04-26T05:04:25.109Z,2.65
2023-04-26T05:04:48.385Z,2.72
2023-04-26T05:05:11.670Z,2.53
2023-04-26T05:05:34.566Z,3.08
2023-04-26T05:05:57.533Z,2.85
2023-04-26T05:06:21.384Z,2.60
2023-04-26T05:06:44.156Z,2.65
2023-04-26T05:07:07.044Z,2.60
2023-04-26T05:07:32.011Z,2.30
2023-04-26T05:07:54.875Z,2.25
2023-04-26T05:08:17.640Z,2.60
2023-04-26T05:08:41.145Z,2.83
2023-04-26T05:09:05.977Z,2.83
2023-04-26T05:09:28.777Z,2.88
2023-04-26T05:09:51.614Z,3.10
2023-04-26T05:10:14.907Z,3.05
2023-04-26T05:10:37.692Z,2.90
2023-04-26T05:11:00.722Z,3.17
2023-04-26T05:11:25.056Z,3.00
2023-04-26T05:11:47.852Z,2.88
2023-04-26T05:12:10.732Z,3.00
2023-04-26T05:12:33.848Z,3.05
2023-04-26T05:12:58.090Z,2.95
2023-04-26T05:13:20.827Z,2.90
2023-04-26T05:13:43.638Z,3.40
2023-04-26T05:14:06.395Z,3.10
2023-04-26T05:14:30.302Z,3.00
2023-04-26T05:14:53.047Z,2.88
2023-04-26T05:15:15.826Z,3.17
2023-04-26T05:15:39.121Z,2.80